Sunday, November 18, 2018, 2:40 PM GMT
Back to Local

CWJB, Ste Foy CS , Que.

Location: , , Canada Lat: 47.3
Local Time: 2:40 PM GMT (14:40 GMT) Lon: -71.267
Time Zone: GMT Elev: 298 ft

Show me the last for .
Show Decoded

2018-11-18 14:00 METAR CWJB 181400Z AUTO 22004KT M08/M13 RMK AO1 SOG 21 T10841130 =
2018-11-18 13:00 METAR CWJB 181300Z AUTO 21004KT M09/M13 RMK AO1 SOG 21 T10911134 =
2018-11-18 12:00 METAR CWJB 181200Z AUTO 19004KT M09/M13 RMK AO1 SOG 21 T10911133 =
2018-11-18 11:00 METAR CWJB 181100Z AUTO 21005KT M09/M12 RMK AO1 SOG 21 T10881115 =
2018-11-18 10:00 METAR CWJB 181000Z AUTO 20002KT M08/M12 RMK AO1 SOG 21 T10751116 =
2018-11-18 09:00 METAR CWJB 180900Z AUTO 21004KT M07/M11 RMK AO1 SOG 21 T10721109 =
2018-11-18 08:00 METAR CWJB 180800Z AUTO 21004KT M07/M11 RMK AO1 SOG 21 T10721106 =
2018-11-18 07:00 METAR CWJB 180700Z AUTO 22007KT M07/M11 RMK AO1 SOG 21 T10721107 =
2018-11-18 06:00 METAR CWJB 180600Z AUTO 21005KT M06/M10 RMK AO1 SOG 21 T10641103 =
2018-11-18 05:00 METAR CWJB 180500Z AUTO 21005KT M06/M10 RMK AO1 SOG 21 T10641102 =
2018-11-18 04:00 METAR CWJB 180400Z AUTO 33003KT M05/M10 RMK AO1 SOG 21 T10541100 =
2018-11-18 03:00 METAR CWJB 180300Z AUTO 20003KT M05/M09 RMK AO1 SOG 21 T10511089 =
2018-11-18 02:00 METAR CWJB 180200Z AUTO 20002KT M05/M08 RMK AO1 SOG 21 T10481076 =
2018-11-18 01:00 METAR CWJB 180100Z AUTO 21003KT M04/M07 RMK AO1 SOG 21 T10371068 =
2018-11-18 00:00 METAR CWJB 180000Z AUTO 20003KT M03/M07 RMK AO1 SOG 21 T10321066 =
2018-11-17 23:00 METAR CWJB 172300Z AUTO 21004KT M02/M06 RMK AO1 SOG 21 T10231063 =
2018-11-17 22:00 METAR CWJB 172200Z AUTO 21004KT M01/M06 RMK AO1 SOG 22 T10141056 =
2018-11-17 21:00 METAR CWJB 172100Z AUTO 21004KT M01/M04 RMK AO1 SOG 22 T10061035 =
2018-11-17 20:00 METAR CWJB 172000Z AUTO 22007KT 00/M03 RMK AO1 SOG 22 T00001028 =
2018-11-17 19:00 METAR CWJB 171900Z AUTO 21007G15KT M00/M03 RMK AO1 SOG 22 T10021031 =
2018-11-17 18:00 METAR CWJB 171800Z AUTO 21006KT M01/M03 RMK AO1 SOG 22 T10061031 50010 =
2018-11-17 17:00 METAR CWJB 171700Z AUTO 21008KT M01/M03 RMK AO1 0PAST HR SOG 23 M P0004
                 T10101033 50010 =
2018-11-17 16:00 METAR CWJB 171600Z AUTO 22007KT M02/M03 RMK AO1 SOG 23 T10171034 =
2018-11-17 15:00 METAR CWJB 171500Z AUTO 22008KT M03/M04 RMK AO1 SOG 23 T10271035 =

Support USWX by starting your Amazon purchase here.